Terminal Aerodrome Forecast
Issued by NWS Charleston, WV

Current Version | Previous Version | Text Only | Print | Product List | Glossary Off
Versions: 1 2 3 4 5 6 7 8 9 10 11 12 13 14 15 16 17 18 19 20 21 22 23

000
FTUS41 KRLX 170500
TAFPKB
TAF
KPKB 170520Z 1706/1806 VRB03KT P6SM BKN050
     FM171000 VRB03KT 4SM BR BKN045
     FM171200 00000KT P6SM BKN040
     FM171400 VRB03KT P6SM BKN035
     FM171600 VRB03KT P6SM VCTS BKN035CB
     FM180300 00000KT P6SM BKN045=

USA.gov is the U.S. government's official web portal to all federal, state and local government web resources and services.